sensor_id;sensor_type;location;lat;lon;timestamp;P1;durP1;ratioP1;P2;durP2;ratioP2
3865;SDS011;1948;53.250;10.412;2023-09-18T00:00:18;6.87;;;6.37;;
3865;SDS011;1948;53.250;10.412;2023-09-18T00:02:50;6.03;;;5.70;;
3865;SDS011;1948;53.250;10.412;2023-09-18T00:05:21;6.67;;;6.20;;
3865;SDS011;1948;53.250;10.412;2023-09-18T00:07:54;7.17;;;6.57;;
3865;SDS011;1948;53.250;10.412;2023-09-18T00:10:23;7.67;;;7.20;;
3865;SDS011;1948;53.250;10.412;2023-09-18T00:12:52;6.93;;;6.33;;
3865;SDS011;1948;53.250;10.412;2023-09-18T00:15:22;7.00;;;6.60;;
3865;SDS011;1948;53.250;10.412;2023-09-18T00:17:53;8.23;;;7.53;;
3865;SDS011;1948;53.250;10.412;2023-09-18T00:20:21;7.00;;;6.50;;
3865;SDS011;1948;53.250;10.412;2023-09-18T00:22:53;10.03;;;7.00;;
3865;SDS011;1948;53.250;10.412;2023-09-18T00:25:24;7.50;;;6.97;;
3865;SDS011;1948;53.250;10.412;2023-09-18T00:27:52;10.60;;;7.50;;
3865;SDS011;1948;53.250;10.412;2023-09-18T00:33:10;6.93;;;6.60;;
3865;SDS011;1948;53.250;10.412;2023-09-18T00:35:38;6.97;;;6.33;;
3865;SDS011;1948;53.250;10.412;2023-09-18T00:38:07;8.47;;;6.90;;
3865;SDS011;1948;53.250;10.412;2023-09-18T00:40:35;7.40;;;6.97;;
3865;SDS011;1948;53.250;10.412;2023-09-18T00:43:03;8.10;;;7.40;;
3865;SDS011;1948;53.250;10.412;2023-09-18T00:45:31;8.27;;;7.47;;
3865;SDS011;1948;53.250;10.412;2023-09-18T00:47:58;8.23;;;6.90;;
3865;SDS011;1948;53.250;10.412;2023-09-18T00:50:26;6.97;;;6.60;;
3865;SDS011;1948;53.250;10.412;2023-09-18T00:52:58;7.33;;;6.93;;
3865;SDS011;1948;53.250;10.412;2023-09-18T00:55:27;7.33;;;6.73;;
3865;SDS011;1948;53.250;10.412;2023-09-18T00:57:56;8.23;;;7.17;;
3865;SDS011;1948;53.250;10.412;2023-09-18T01:00:24;8.27;;;7.50;;
3865;SDS011;1948;53.250;10.412;2023-09-18T01:02:52;7.30;;;6.90;;
3865;SDS011;1948;53.250;10.412;2023-09-18T01:05:20;7.87;;;7.43;;
3865;SDS011;1948;53.250;10.412;2023-09-18T01:07:50;12.60;;;7.37;;
3865;SDS011;1948;53.250;10.412;2023-09-18T01:10:18;7.30;;;6.90;;
3865;SDS011;1948;53.250;10.412;2023-09-18T01:15:27;8.20;;;7.47;;
3865;SDS011;1948;53.250;10.412;2023-09-18T01:18:01;7.93;;;7.23;;
3865;SDS011;1948;53.250;10.412;2023-09-18T01:20:29;8.30;;;7.60;;
3865;SDS011;1948;53.250;10.412;2023-09-18T01:23:00;9.70;;;8.43;;
3865;SDS011;1948;53.250;10.412;2023-09-18T01:25:30;8.93;;;8.17;;
3865;SDS011;1948;53.250;10.412;2023-09-18T01:28:01;7.57;;;7.10;;
3865;SDS011;1948;53.250;10.412;2023-09-18T01:30:30;8.50;;;7.53;;
3865;SDS011;1948;53.250;10.412;2023-09-18T01:33:01;7.10;;;6.70;;
3865;SDS011;1948;53.250;10.412;2023-09-18T01:35:31;8.07;;;7.07;;
3865;SDS011;1948;53.250;10.412;2023-09-18T01:38:03;8.63;;;8.00;;
3865;SDS011;1948;53.250;10.412;2023-09-18T01:40:31;19.93;;;7.30;;
3865;SDS011;1948;53.250;10.412;2023-09-18T01:42:59;9.27;;;6.70;;
3865;SDS011;1948;53.250;10.412;2023-09-18T01:45:27;7.77;;;7.37;;
3865;SDS011;1948;53.250;10.412;2023-09-18T01:47:54;15.57;;;8.13;;
3865;SDS011;1948;53.250;10.412;2023-09-18T01:50:22;8.00;;;7.50;;
3865;SDS011;1948;53.250;10.412;2023-09-18T01:52:53;16.93;;;7.87;;
3865;SDS011;1948;53.250;10.412;2023-09-18T01:55:20;9.07;;;7.40;;
3865;SDS011;1948;53.250;10.412;2023-09-18T01:57:50;8.27;;;7.53;;
3865;SDS011;1948;53.250;10.412;2023-09-18T02:00:18;7.90;;;7.30;;
3865;SDS011;1948;53.250;10.412;2023-09-18T02:02:49;8.77;;;8.17;;
3865;SDS011;1948;53.250;10.412;2023-09-18T02:05:36;8.73;;;8.13;;
3865;SDS011;1948;53.250;10.412;2023-09-18T02:08:03;10.97;;;7.70;;
3865;SDS011;1948;53.250;10.412;2023-09-18T02:10:33;8.10;;;7.50;;
3865;SDS011;1948;53.250;10.412;2023-09-18T02:13:00;8.10;;;7.50;;
3865;SDS011;1948;53.250;10.412;2023-09-18T02:15:27;8.27;;;7.67;;
3865;SDS011;1948;53.250;10.412;2023-09-18T02:17:58;8.50;;;7.93;;
3865;SDS011;1948;53.250;10.412;2023-09-18T02:20:26;7.90;;;7.40;;
3865;SDS011;1948;53.250;10.412;2023-09-18T02:22:57;10.57;;;8.20;;
3865;SDS011;1948;53.250;10.412;2023-09-18T02:25:24;12.30;;;8.57;;
3865;SDS011;1948;53.250;10.412;2023-09-18T02:27:52;8.80;;;8.20;;
3865;SDS011;1948;53.250;10.412;2023-09-18T02:30:20;8.40;;;7.80;;
3865;SDS011;1948;53.250;10.412;2023-09-18T02:32:47;8.30;;;7.47;;
3865;SDS011;1948;53.250;10.412;2023-09-18T02:35:14;12.10;;;8.07;;
3865;SDS011;1948;53.250;10.412;2023-09-18T02:37:42;8.80;;;8.10;;
3865;SDS011;1948;53.250;10.412;2023-09-18T02:40:13;8.80;;;8.10;;
3865;SDS011;1948;53.250;10.412;2023-09-18T02:42:41;8.27;;;7.77;;
3865;SDS011;1948;53.250;10.412;2023-09-18T02:45:08;9.13;;;8.30;;
3865;SDS011;1948;53.250;10.412;2023-09-18T02:47:38;9.93;;;8.33;;
3865;SDS011;1948;53.250;10.412;2023-09-18T02:50:08;21.53;;;8.77;;
3865;SDS011;1948;53.250;10.412;2023-09-18T02:52:38;8.43;;;7.77;;
3865;SDS011;1948;53.250;10.412;2023-09-18T02:55:08;12.30;;;8.27;;
3865;SDS011;1948;53.250;10.412;2023-09-18T02:57:39;9.83;;;8.10;;
3865;SDS011;1948;53.250;10.412;2023-09-18T03:00:07;8.60;;;7.83;;
3865;SDS011;1948;53.250;10.412;2023-09-18T03:02:34;22.97;;;7.90;;
3865;SDS011;1948;53.250;10.412;2023-09-18T03:05:02;8.17;;;7.43;;
3865;SDS011;1948;53.250;10.412;2023-09-18T03:07:32;7.50;;;7.13;;
3865;SDS011;1948;53.250;10.412;2023-09-18T03:10:01;8.23;;;7.53;;
3865;SDS011;1948;53.250;10.412;2023-09-18T03:12:28;8.80;;;7.97;;
3865;SDS011;1948;53.250;10.412;2023-09-18T03:14:58;9.33;;;8.73;;
3865;SDS011;1948;53.250;10.412;2023-09-18T03:17:26;8.50;;;7.80;;
3865;SDS011;1948;53.250;10.412;2023-09-18T03:19:53;10.20;;;8.70;;
3865;SDS011;1948;53.250;10.412;2023-09-18T03:22:20;8.27;;;7.77;;
3865;SDS011;1948;53.250;10.412;2023-09-18T03:24:47;9.57;;;8.57;;
3865;SDS011;1948;53.250;10.412;2023-09-18T03:27:14;10.10;;;9.10;;
3865;SDS011;1948;53.250;10.412;2023-09-18T03:29:42;10.53;;;9.30;;
3865;SDS011;1948;53.250;10.412;2023-09-18T03:32:09;9.50;;;8.40;;
3865;SDS011;1948;53.250;10.412;2023-09-18T03:34:39;9.70;;;8.90;;
3865;SDS011;1948;53.250;10.412;2023-09-18T03:37:08;8.73;;;7.80;;
3865;SDS011;1948;53.250;10.412;2023-09-18T03:39:38;9.73;;;9.03;;
3865;SDS011;1948;53.250;10.412;2023-09-18T03:42:05;9.07;;;8.40;;
3865;SDS011;1948;53.250;10.412;2023-09-18T03:44:35;9.03;;;8.30;;
3865;SDS011;1948;53.250;10.412;2023-09-18T03:47:05;10.13;;;8.57;;
3865;SDS011;1948;53.250;10.412;2023-09-18T03:49:37;13.50;;;9.00;;
3865;SDS011;1948;53.250;10.412;2023-09-18T03:52:08;10.63;;;8.40;;
3865;SDS011;1948;53.250;10.412;2023-09-18T03:54:36;20.73;;;9.03;;
3865;SDS011;1948;53.250;10.412;2023-09-18T03:57:03;13.10;;;9.10;;
3865;SDS011;1948;53.250;10.412;2023-09-18T03:59:34;12.00;;;8.90;;
3865;SDS011;1948;53.250;10.412;2023-09-18T04:02:02;14.00;;;9.20;;
3865;SDS011;1948;53.250;10.412;2023-09-18T04:04:30;10.47;;;9.27;;
3865;SDS011;1948;53.250;10.412;2023-09-18T04:06:59;10.20;;;9.30;;
3865;SDS011;1948;53.250;10.412;2023-09-18T04:09:34;10.57;;;8.87;;
3865;SDS011;1948;53.250;10.412;2023-09-18T04:12:02;25.07;;;9.00;;
3865;SDS011;1948;53.250;10.412;2023-09-18T04:14:33;9.87;;;8.97;;
3865;SDS011;1948;53.250;10.412;2023-09-18T04:17:03;9.23;;;8.63;;
3865;SDS011;1948;53.250;10.412;2023-09-18T04:19:33;9.20;;;8.40;;
3865;SDS011;1948;53.250;10.412;2023-09-18T04:22:02;10.07;;;9.07;;
3865;SDS011;1948;53.250;10.412;2023-09-18T04:24:34;9.73;;;8.73;;
3865;SDS011;1948;53.250;10.412;2023-09-18T04:27:04;9.40;;;8.63;;
3865;SDS011;1948;53.250;10.412;2023-09-18T04:29:31;13.23;;;8.80;;
3865;SDS011;1948;53.250;10.412;2023-09-18T04:31:58;16.23;;;8.83;;
3865;SDS011;1948;53.250;10.412;2023-09-18T04:34:30;14.13;;;9.50;;
3865;SDS011;1948;53.250;10.412;2023-09-18T04:36:57;9.80;;;8.73;;
3865;SDS011;1948;53.250;10.412;2023-09-18T04:39:25;9.90;;;9.20;;
3865;SDS011;1948;53.250;10.412;2023-09-18T04:41:56;17.43;;;9.20;;
3865;SDS011;1948;53.250;10.412;2023-09-18T04:44:26;16.10;;;10.27;;
3865;SDS011;1948;53.250;10.412;2023-09-18T04:47:01;9.57;;;8.87;;
3865;SDS011;1948;53.250;10.412;2023-09-18T04:49:32;17.17;;;11.50;;
3865;SDS011;1948;53.250;10.412;2023-09-18T04:51:59;23.93;;;12.83;;
3865;SDS011;1948;53.250;10.412;2023-09-18T04:54:28;11.53;;;10.50;;
3865;SDS011;1948;53.250;10.412;2023-09-18T04:57:01;19.93;;;10.50;;
3865;SDS011;1948;53.250;10.412;2023-09-18T04:59:31;9.33;;;8.47;;
3865;SDS011;1948;53.250;10.412;2023-09-18T05:01:59;9.87;;;9.00;;
3865;SDS011;1948;53.250;10.412;2023-09-18T05:04:26;9.87;;;8.87;;
3865;SDS011;1948;53.250;10.412;2023-09-18T05:06:58;13.20;;;11.07;;
3865;SDS011;1948;53.250;10.412;2023-09-18T05:09:27;11.67;;;10.47;;
3865;SDS011;1948;53.250;10.412;2023-09-18T05:11:59;11.43;;;9.93;;
3865;SDS011;1948;53.250;10.412;2023-09-18T05:14:31;11.70;;;9.73;;
3865;SDS011;1948;53.250;10.412;2023-09-18T05:17:06;8.63;;;8.03;;
3865;SDS011;1948;53.250;10.412;2023-09-18T05:19:42;11.80;;;9.60;;
3865;SDS011;1948;53.250;10.412;2023-09-18T05:22:10;9.67;;;8.87;;
3865;SDS011;1948;53.250;10.412;2023-09-18T05:24:40;14.20;;;10.50;;
3865;SDS011;1948;53.250;10.412;2023-09-18T05:27:12;11.23;;;9.20;;
3865;SDS011;1948;53.250;10.412;2023-09-18T05:29:39;14.93;;;9.90;;
3865;SDS011;1948;53.250;10.412;2023-09-18T05:32:10;10.10;;;9.07;;
3865;SDS011;1948;53.250;10.412;2023-09-18T05:34:37;9.53;;;8.73;;
3865;SDS011;1948;53.250;10.412;2023-09-18T05:37:04;9.80;;;9.00;;
3865;SDS011;1948;53.250;10.412;2023-09-18T05:39:34;9.73;;;8.93;;
3865;SDS011;1948;53.250;10.412;2023-09-18T05:42:03;11.97;;;9.17;;
3865;SDS011;1948;53.250;10.412;2023-09-18T05:44:31;10.40;;;9.40;;
3865;SDS011;1948;53.250;10.412;2023-09-18T05:46:58;9.83;;;8.90;;
3865;SDS011;1948;53.250;10.412;2023-09-18T05:49:25;19.20;;;8.63;;
3865;SDS011;1948;53.250;10.412;2023-09-18T05:51:55;10.13;;;9.10;;
3865;SDS011;1948;53.250;10.412;2023-09-18T05:54:22;15.23;;;8.30;;
3865;SDS011;1948;53.250;10.412;2023-09-18T05:56:49;33.93;;;9.03;;
3865;SDS011;1948;53.250;10.412;2023-09-18T05:59:21;9.27;;;8.40;;
3865;SDS011;1948;53.250;10.412;2023-09-18T06:01:50;10.30;;;8.10;;
3865;SDS011;1948;53.250;10.412;2023-09-18T06:04:20;10.10;;;8.77;;
3865;SDS011;1948;53.250;10.412;2023-09-18T06:06:47;11.20;;;7.93;;
3865;SDS011;1948;53.250;10.412;2023-09-18T06:09:14;9.07;;;8.30;;
3865;SDS011;1948;53.250;10.412;2023-09-18T06:11:42;13.90;;;8.30;;
3865;SDS011;1948;53.250;10.412;2023-09-18T06:14:11;7.77;;;7.13;;
3865;SDS011;1948;53.250;10.412;2023-09-18T06:16:38;7.97;;;7.17;;
3865;SDS011;1948;53.250;10.412;2023-09-18T06:19:08;7.53;;;7.03;;
3865;SDS011;1948;53.250;10.412;2023-09-18T06:21:40;7.83;;;7.13;;
3865;SDS011;1948;53.250;10.412;2023-09-18T06:24:11;7.70;;;7.13;;
3865;SDS011;1948;53.250;10.412;2023-09-18T06:26:41;14.13;;;6.90;;
3865;SDS011;1948;53.250;10.412;2023-09-18T06:29:08;8.00;;;7.30;;
3865;SDS011;1948;53.250;10.412;2023-09-18T06:31:38;6.73;;;6.43;;
3865;SDS011;1948;53.250;10.412;2023-09-18T06:34:05;7.57;;;6.97;;
3865;SDS011;1948;53.250;10.412;2023-09-18T06:36:35;8.93;;;6.53;;
3865;SDS011;1948;53.250;10.412;2023-09-18T06:39:03;8.10;;;6.97;;
3865;SDS011;1948;53.250;10.412;2023-09-18T06:41:35;7.40;;;6.87;;
3865;SDS011;1948;53.250;10.412;2023-09-18T06:44:05;7.10;;;6.80;;
3865;SDS011;1948;53.250;10.412;2023-09-18T06:46:34;6.43;;;6.03;;
3865;SDS011;1948;53.250;10.412;2023-09-18T06:49:10;6.67;;;6.30;;
3865;SDS011;1948;53.250;10.412;2023-09-18T06:51:37;8.60;;;6.63;;
3865;SDS011;1948;53.250;10.412;2023-09-18T06:54:11;9.97;;;6.80;;
3865;SDS011;1948;53.250;10.412;2023-09-18T06:56:39;7.67;;;6.87;;
3865;SDS011;1948;53.250;10.412;2023-09-18T06:59:10;7.60;;;6.77;;
3865;SDS011;1948;53.250;10.412;2023-09-18T07:01:40;6.73;;;6.43;;
3865;SDS011;1948;53.250;10.412;2023-09-18T07:04:11;8.27;;;7.53;;
3865;SDS011;1948;53.250;10.412;2023-09-18T07:06:41;7.20;;;6.23;;
3865;SDS011;1948;53.250;10.412;2023-09-18T07:09:12;9.40;;;7.23;;
3865;SDS011;1948;53.250;10.412;2023-09-18T07:11:40;6.93;;;6.40;;
3865;SDS011;1948;53.250;10.412;2023-09-18T07:14:07;7.07;;;6.57;;
3865;SDS011;1948;53.250;10.412;2023-09-18T07:16:34;6.77;;;6.23;;
3865;SDS011;1948;53.250;10.412;2023-09-18T07:19:02;7.53;;;7.03;;
3865;SDS011;1948;53.250;10.412;2023-09-18T07:21:32;7.30;;;6.90;;
3865;SDS011;1948;53.250;10.412;2023-09-18T07:24:01;7.13;;;6.73;;
3865;SDS011;1948;53.250;10.412;2023-09-18T07:26:28;7.03;;;6.47;;
3865;SDS011;1948;53.250;10.412;2023-09-18T07:28:58;13.07;;;6.77;;
3865;SDS011;1948;53.250;10.412;2023-09-18T07:31:28;7.77;;;7.03;;
3865;SDS011;1948;53.250;10.412;2023-09-18T07:33:55;6.13;;;5.70;;
3865;SDS011;1948;53.250;10.412;2023-09-18T07:36:22;6.93;;;6.33;;
3865;SDS011;1948;53.250;10.412;2023-09-18T07:38:49;6.47;;;5.97;;
3865;SDS011;1948;53.250;10.412;2023-09-18T07:41:17;7.20;;;6.60;;
3865;SDS011;1948;53.250;10.412;2023-09-18T07:43:46;6.27;;;6.00;;
3865;SDS011;1948;53.250;10.412;2023-09-18T07:46:15;11.23;;;6.00;;
3865;SDS011;1948;53.250;10.412;2023-09-18T07:48:42;7.00;;;5.70;;
3865;SDS011;1948;53.250;10.412;2023-09-18T07:51:12;6.43;;;5.80;;
3865;SDS011;1948;53.250;10.412;2023-09-18T07:53:40;6.30;;;5.80;;
3865;SDS011;1948;53.250;10.412;2023-09-18T07:56:12;6.20;;;5.80;;
3865;SDS011;1948;53.250;10.412;2023-09-18T07:58:39;6.47;;;5.97;;
3865;SDS011;1948;53.250;10.412;2023-09-18T08:01:06;7.13;;;5.50;;
3865;SDS011;1948;53.250;10.412;2023-09-18T08:03:36;7.13;;;6.73;;
3865;SDS011;1948;53.250;10.412;2023-09-18T08:06:06;6.17;;;5.67;;
3865;SDS011;1948;53.250;10.412;2023-09-18T08:08:38;6.20;;;5.67;;
3865;SDS011;1948;53.250;10.412;2023-09-18T08:11:11;6.93;;;6.40;;
3865;SDS011;1948;53.250;10.412;2023-09-18T08:13:39;5.97;;;5.57;;
3865;SDS011;1948;53.250;10.412;2023-09-18T08:16:09;7.33;;;6.30;;
3865;SDS011;1948;53.250;10.412;2023-09-18T08:18:36;7.00;;;6.37;;
3865;SDS011;1948;53.250;10.412;2023-09-18T08:21:07;6.27;;;5.97;;
3865;SDS011;1948;53.250;10.412;2023-09-18T08:23:37;12.73;;;6.30;;
3865;SDS011;1948;53.250;10.412;2023-09-18T08:26:07;6.03;;;5.60;;
3865;SDS011;1948;53.250;10.412;2023-09-18T08:28:37;6.10;;;5.90;;
3865;SDS011;1948;53.250;10.412;2023-09-18T08:31:12;7.90;;;6.13;;
3865;SDS011;1948;53.250;10.412;2023-09-18T08:33:43;6.90;;;5.53;;
3865;SDS011;1948;53.250;10.412;2023-09-18T08:36:10;6.93;;;6.10;;
3865;SDS011;1948;53.250;10.412;2023-09-18T08:38:45;6.47;;;6.03;;
3865;SDS011;1948;53.250;10.412;2023-09-18T08:41:17;6.00;;;5.70;;
3865;SDS011;1948;53.250;10.412;2023-09-18T08:43:47;6.00;;;5.60;;
3865;SDS011;1948;53.250;10.412;2023-09-18T08:46:16;6.43;;;6.07;;
3865;SDS011;1948;53.250;10.412;2023-09-18T08:48:47;7.27;;;5.80;;
3865;SDS011;1948;53.250;10.412;2023-09-18T08:51:21;7.13;;;6.13;;
3865;SDS011;1948;53.250;10.412;2023-09-18T08:53:49;6.13;;;5.73;;
3865;SDS011;1948;53.250;10.412;2023-09-18T08:56:17;9.93;;;6.60;;
3865;SDS011;1948;53.250;10.412;2023-09-18T08:58:48;8.83;;;6.37;;
3865;SDS011;1948;53.250;10.412;2023-09-18T09:01:17;6.63;;;6.27;;
3865;SDS011;1948;53.250;10.412;2023-09-18T09:03:47;6.77;;;6.30;;
3865;SDS011;1948;53.250;10.412;2023-09-18T09:06:19;6.87;;;6.23;;
3865;SDS011;1948;53.250;10.412;2023-09-18T09:08:46;7.13;;;6.33;;
3865;SDS011;1948;53.250;10.412;2023-09-18T09:11:19;6.73;;;6.43;;
3865;SDS011;1948;53.250;10.412;2023-09-18T09:14:08;8.50;;;6.30;;
3865;SDS011;1948;53.250;10.412;2023-09-18T09:16:48;8.03;;;7.30;;
3865;SDS011;1948;53.250;10.412;2023-09-18T09:19:16;6.60;;;6.20;;
3865;SDS011;1948;53.250;10.412;2023-09-18T09:21:47;7.50;;;7.10;;
3865;SDS011;1948;53.250;10.412;2023-09-18T09:24:17;7.00;;;6.50;;
3865;SDS011;1948;53.250;10.412;2023-09-18T09:27:11;9.10;;;6.20;;
3865;SDS011;1948;53.250;10.412;2023-09-18T09:29:41;7.23;;;6.60;;
3865;SDS011;1948;53.250;10.412;2023-09-18T09:32:24;8.80;;;7.00;;
3865;SDS011;1948;53.250;10.412;2023-09-18T09:35:01;6.00;;;5.60;;
3865;SDS011;1948;53.250;10.412;2023-09-18T09:37:33;6.43;;;5.80;;
3865;SDS011;1948;53.250;10.412;2023-09-18T09:40:03;6.17;;;5.87;;
3865;SDS011;1948;53.250;10.412;2023-09-18T09:42:39;9.53;;;6.27;;
3865;SDS011;1948;53.250;10.412;2023-09-18T09:45:14;6.07;;;5.57;;
3865;SDS011;1948;53.250;10.412;2023-09-18T09:47:45;8.03;;;5.60;;
3865;SDS011;1948;53.250;10.412;2023-09-18T09:50:13;6.30;;;5.90;;
3865;SDS011;1948;53.250;10.412;2023-09-18T09:52:49;7.30;;;6.10;;
3865;SDS011;1948;53.250;10.412;2023-09-18T09:55:18;8.77;;;5.80;;
3865;SDS011;1948;53.250;10.412;2023-09-18T09:57:54;6.50;;;5.90;;
3865;SDS011;1948;53.250;10.412;2023-09-18T10:00:33;10.67;;;5.93;;
3865;SDS011;1948;53.250;10.412;2023-09-18T10:03:14;17.87;;;6.10;;
3865;SDS011;1948;53.250;10.412;2023-09-18T10:05:50;5.97;;;5.27;;
3865;SDS011;1948;53.250;10.412;2023-09-18T10:08:23;10.60;;;6.17;;
3865;SDS011;1948;53.250;10.412;2023-09-18T10:11:00;7.10;;;5.90;;
3865;SDS011;1948;53.250;10.412;2023-09-18T10:16:18;7.30;;;6.60;;
3865;SDS011;1948;53.250;10.412;2023-09-18T10:18:56;9.33;;;6.10;;
3865;SDS011;1948;53.250;10.412;2023-09-18T10:22:00;8.23;;;6.60;;
3865;SDS011;1948;53.250;10.412;2023-09-18T10:24:49;6.70;;;5.80;;
3865;SDS011;1948;53.250;10.412;2023-09-18T10:27:21;8.43;;;5.93;;
3865;SDS011;1948;53.250;10.412;2023-09-18T10:29:53;8.03;;;6.23;;
3865;SDS011;1948;53.250;10.412;2023-09-18T10:32:21;10.20;;;6.73;;
3865;SDS011;1948;53.250;10.412;2023-09-18T10:34:55;6.80;;;5.47;;
3865;SDS011;1948;53.250;10.412;2023-09-18T10:37:24;12.10;;;7.47;;
3865;SDS011;1948;53.250;10.412;2023-09-18T10:39:52;9.53;;;5.80;;
3865;SDS011;1948;53.250;10.412;2023-09-18T10:42:21;9.33;;;5.77;;
3865;SDS011;1948;53.250;10.412;2023-09-18T10:44:52;8.40;;;6.10;;
3865;SDS011;1948;53.250;10.412;2023-09-18T10:47:22;12.77;;;6.07;;
3865;SDS011;1948;53.250;10.412;2023-09-18T10:49:50;19.53;;;6.83;;
3865;SDS011;1948;53.250;10.412;2023-09-18T10:52:18;7.07;;;6.47;;
3865;SDS011;1948;53.250;10.412;2023-09-18T10:54:47;6.93;;;5.50;;
3865;SDS011;1948;53.250;10.412;2023-09-18T10:57:15;8.83;;;6.50;;
3865;SDS011;1948;53.250;10.412;2023-09-18T10:59:43;11.13;;;6.07;;
3865;SDS011;1948;53.250;10.412;2023-09-18T11:02:14;5.50;;;5.07;;
3865;SDS011;1948;53.250;10.412;2023-09-18T11:04:44;6.50;;;6.00;;
3865;SDS011;1948;53.250;10.412;2023-09-18T11:07:20;11.40;;;5.73;;
3865;SDS011;1948;53.250;10.412;2023-09-18T11:09:49;10.63;;;6.17;;
3865;SDS011;1948;53.250;10.412;2023-09-18T11:12:21;7.43;;;5.80;;
3865;SDS011;1948;53.250;10.412;2023-09-18T11:15:25;9.63;;;5.87;;
3865;SDS011;1948;53.250;10.412;2023-09-18T11:17:59;12.00;;;5.67;;
3865;SDS011;1948;53.250;10.412;2023-09-18T11:20:34;12.50;;;5.83;;
3865;SDS011;1948;53.250;10.412;2023-09-18T11:25:42;11.00;;;5.60;;
3865;SDS011;1948;53.250;10.412;2023-09-18T11:28:15;13.23;;;5.90;;
3865;SDS011;1948;53.250;10.412;2023-09-18T11:30:55;20.47;;;6.30;;
3865;SDS011;1948;53.250;10.412;2023-09-18T11:36:07;9.83;;;4.73;;
3865;SDS011;1948;53.250;10.412;2023-09-18T11:38:59;7.13;;;5.60;;
3865;SDS011;1948;53.250;10.412;2023-09-18T11:41:32;20.23;;;5.20;;
3865;SDS011;1948;53.250;10.412;2023-09-18T11:46:49;14.57;;;5.50;;
3865;SDS011;1948;53.250;10.412;2023-09-18T11:49:24;11.70;;;5.70;;
3865;SDS011;1948;53.250;10.412;2023-09-18T11:51:54;10.73;;;4.57;;
3865;SDS011;1948;53.250;10.412;2023-09-18T11:54:28;12.13;;;4.70;;
3865;SDS011;1948;53.250;10.412;2023-09-18T11:57:03;19.20;;;5.73;;
3865;SDS011;1948;53.250;10.412;2023-09-18T11:59:38;30.03;;;5.57;;
3865;SDS011;1948;53.250;10.412;2023-09-18T12:02:10;11.93;;;5.30;;
3865;SDS011;1948;53.250;10.412;2023-09-18T12:05:09;8.90;;;4.67;;
3865;SDS011;1948;53.250;10.412;2023-09-18T12:07:38;9.83;;;4.60;;
3865;SDS011;1948;53.250;10.412;2023-09-18T12:10:11;10.23;;;5.00;;
3865;SDS011;1948;53.250;10.412;2023-09-18T12:12:41;16.17;;;4.20;;
3865;SDS011;1948;53.250;10.412;2023-09-18T12:15:13;18.33;;;4.53;;
3865;SDS011;1948;53.250;10.412;2023-09-18T12:17:49;9.30;;;4.20;;
3865;SDS011;1948;53.250;10.412;2023-09-18T12:20:23;9.37;;;4.30;;
3865;SDS011;1948;53.250;10.412;2023-09-18T12:22:52;8.47;;;4.20;;
3865;SDS011;1948;53.250;10.412;2023-09-18T12:25:20;9.10;;;5.23;;
3865;SDS011;1948;53.250;10.412;2023-09-18T12:27:54;8.10;;;4.23;;
3865;SDS011;1948;53.250;10.412;2023-09-18T12:30:25;9.33;;;3.20;;
3865;SDS011;1948;53.250;10.412;2023-09-18T12:32:57;6.00;;;3.60;;
3865;SDS011;1948;53.250;10.412;2023-09-18T12:35:26;8.43;;;3.20;;
3865;SDS011;1948;53.250;10.412;2023-09-18T12:37:59;11.60;;;3.73;;
3865;SDS011;1948;53.250;10.412;2023-09-18T12:40:31;13.57;;;3.47;;
3865;SDS011;1948;53.250;10.412;2023-09-18T12:42:59;10.00;;;3.33;;
3865;SDS011;1948;53.250;10.412;2023-09-18T12:45:27;13.83;;;2.97;;
3865;SDS011;1948;53.250;10.412;2023-09-18T12:47:56;15.23;;;3.30;;
3865;SDS011;1948;53.250;10.412;2023-09-18T12:50:25;9.10;;;3.40;;
3865;SDS011;1948;53.250;10.412;2023-09-18T12:53:11;20.40;;;4.50;;
3865;SDS011;1948;53.250;10.412;2023-09-18T12:55:43;7.33;;;3.17;;
3865;SDS011;1948;53.250;10.412;2023-09-18T12:58:13;8.63;;;3.03;;
3865;SDS011;1948;53.250;10.412;2023-09-18T13:00:49;10.50;;;3.10;;
3865;SDS011;1948;53.250;10.412;2023-09-18T13:03:17;14.23;;;3.43;;
3865;SDS011;1948;53.250;10.412;2023-09-18T13:05:45;11.13;;;3.80;;
3865;SDS011;1948;53.250;10.412;2023-09-18T13:08:13;2.93;;;2.63;;
3865;SDS011;1948;53.250;10.412;2023-09-18T13:10:46;12.20;;;3.37;;
3865;SDS011;1948;53.250;10.412;2023-09-18T13:13:22;4.87;;;2.90;;
3865;SDS011;1948;53.250;10.412;2023-09-18T13:15:50;5.23;;;3.00;;
3865;SDS011;1948;53.250;10.412;2023-09-18T13:18:26;6.00;;;3.07;;
3865;SDS011;1948;53.250;10.412;2023-09-18T13:20:53;10.90;;;2.70;;
3865;SDS011;1948;53.250;10.412;2023-09-18T13:23:27;12.20;;;2.50;;
3865;SDS011;1948;53.250;10.412;2023-09-18T13:25:59;5.83;;;2.90;;
3865;SDS011;1948;53.250;10.412;2023-09-18T13:28:31;13.33;;;2.77;;
3865;SDS011;1948;53.250;10.412;2023-09-18T13:31:04;11.27;;;2.40;;
3865;SDS011;1948;53.250;10.412;2023-09-18T13:33:37;6.23;;;2.30;;
3865;SDS011;1948;53.250;10.412;2023-09-18T13:36:11;8.10;;;2.30;;
3865;SDS011;1948;53.250;10.412;2023-09-18T13:38:38;5.10;;;2.10;;
3865;SDS011;1948;53.250;10.412;2023-09-18T13:41:06;9.47;;;2.63;;
3865;SDS011;1948;53.250;10.412;2023-09-18T13:43:33;12.23;;;2.30;;
3865;SDS011;1948;53.250;10.412;2023-09-18T13:46:04;5.17;;;2.10;;
3865;SDS011;1948;53.250;10.412;2023-09-18T13:48:31;4.10;;;2.93;;
3865;SDS011;1948;53.250;10.412;2023-09-18T13:50:59;5.83;;;2.40;;
3865;SDS011;1948;53.250;10.412;2023-09-18T13:53:28;7.60;;;2.67;;
3865;SDS011;1948;53.250;10.412;2023-09-18T13:55:56;4.53;;;2.60;;
3865;SDS011;1948;53.250;10.412;2023-09-18T13:58:25;5.60;;;2.20;;
3865;SDS011;1948;53.250;10.412;2023-09-18T14:00:55;6.00;;;2.40;;
3865;SDS011;1948;53.250;10.412;2023-09-18T14:03:25;9.03;;;2.70;;
3865;SDS011;1948;53.250;10.412;2023-09-18T14:05:53;7.63;;;3.17;;
3865;SDS011;1948;53.250;10.412;2023-09-18T14:08:20;19.03;;;2.53;;
3865;SDS011;1948;53.250;10.412;2023-09-18T14:10:53;6.80;;;2.60;;
3865;SDS011;1948;53.250;10.412;2023-09-18T14:13:22;5.63;;;2.77;;
3865;SDS011;1948;53.250;10.412;2023-09-18T14:15:52;10.57;;;3.00;;
3865;SDS011;1948;53.250;10.412;2023-09-18T14:18:24;11.67;;;3.50;;
3865;SDS011;1948;53.250;10.412;2023-09-18T14:20:52;15.13;;;3.03;;
3865;SDS011;1948;53.250;10.412;2023-09-18T14:23:19;4.73;;;2.83;;
3865;SDS011;1948;53.250;10.412;2023-09-18T14:25:51;15.67;;;2.63;;
3865;SDS011;1948;53.250;10.412;2023-09-18T14:28:18;8.43;;;3.20;;
3865;SDS011;1948;53.250;10.412;2023-09-18T14:30:45;9.40;;;2.40;;
3865;SDS011;1948;53.250;10.412;2023-09-18T14:33:12;11.70;;;2.77;;
3865;SDS011;1948;53.250;10.412;2023-09-18T14:35:41;6.07;;;3.10;;
3865;SDS011;1948;53.250;10.412;2023-09-18T14:38:10;12.87;;;2.90;;
3865;SDS011;1948;53.250;10.412;2023-09-18T14:40:43;5.40;;;2.60;;
3865;SDS011;1948;53.250;10.412;2023-09-18T14:43:10;3.70;;;2.30;;
3865;SDS011;1948;53.250;10.412;2023-09-18T14:45:38;8.10;;;3.30;;
3865;SDS011;1948;53.250;10.412;2023-09-18T14:48:06;5.67;;;3.00;;
3865;SDS011;1948;53.250;10.412;2023-09-18T14:50:33;7.40;;;2.73;;
3865;SDS011;1948;53.250;10.412;2023-09-18T14:53:01;6.03;;;2.70;;
3865;SDS011;1948;53.250;10.412;2023-09-18T14:55:30;11.50;;;3.03;;
3865;SDS011;1948;53.250;10.412;2023-09-18T14:57:57;14.60;;;3.17;;
3865;SDS011;1948;53.250;10.412;2023-09-18T15:00:32;5.03;;;2.97;;
3865;SDS011;1948;53.250;10.412;2023-09-18T15:03:02;8.27;;;3.40;;
3865;SDS011;1948;53.250;10.412;2023-09-18T15:05:33;10.03;;;3.53;;
3865;SDS011;1948;53.250;10.412;2023-09-18T15:08:08;6.23;;;2.67;;
3865;SDS011;1948;53.250;10.412;2023-09-18T15:10:35;12.17;;;3.60;;
3865;SDS011;1948;53.250;10.412;2023-09-18T15:13:03;26.70;;;3.57;;
3865;SDS011;1948;53.250;10.412;2023-09-18T15:15:37;20.40;;;3.20;;
3865;SDS011;1948;53.250;10.412;2023-09-18T15:18:07;6.50;;;3.17;;
3865;SDS011;1948;53.250;10.412;2023-09-18T15:20:35;11.00;;;4.17;;
3865;SDS011;1948;53.250;10.412;2023-09-18T15:23:03;7.37;;;3.30;;
3865;SDS011;1948;53.250;10.412;2023-09-18T15:25:30;6.27;;;3.13;;
3865;SDS011;1948;53.250;10.412;2023-09-18T15:28:04;4.37;;;2.87;;
3865;SDS011;1948;53.250;10.412;2023-09-18T15:30:33;9.50;;;3.87;;
3865;SDS011;1948;53.250;10.412;2023-09-18T15:33:20;8.20;;;3.37;;